createdAt,value
2023-01-20T00:01:48.442Z,6.47
2023-01-20T00:04:19.147Z,6.43
2023-01-20T00:06:46.508Z,9.40
2023-01-20T00:09:18.027Z,8.93
2023-01-20T00:11:44.892Z,6.67
2023-01-20T00:14:11.820Z,4.53
2023-01-20T00:16:38.861Z,8.07
2023-01-20T00:19:06.365Z,4.70
2023-01-20T00:21:35.150Z,7.70
2023-01-20T00:24:01.956Z,11.10
2023-01-20T00:26:28.745Z,6.43
2023-01-20T00:28:57.741Z,4.83
2023-01-20T00:31:26.879Z,10.63
2023-01-20T00:33:56.753Z,6.03
2023-01-20T00:36:25.556Z,13.40
2023-01-20T00:38:52.622Z,9.83
2023-01-20T00:41:20.035Z,5.87
2023-01-20T00:43:46.905Z,11.80
2023-01-20T00:46:14.334Z,15.70
2023-01-20T00:48:41.482Z,9.80
2023-01-20T00:51:09.111Z,9.03
2023-01-20T00:53:36.371Z,8.37
2023-01-20T00:56:03.313Z,10.00
2023-01-20T00:58:30.082Z,11.73
2023-01-20T01:01:12.945Z,8.53
2023-01-20T01:03:39.922Z,9.50
2023-01-20T01:06:09.226Z,13.73
2023-01-20T01:08:36.140Z,12.50
2023-01-20T01:11:03.445Z,7.87
2023-01-20T01:13:30.397Z,8.60
2023-01-20T01:15:57.301Z,9.97
2023-01-20T01:18:43.261Z,16.50
2023-01-20T01:21:12.615Z,8.33
2023-01-20T01:23:39.370Z,8.97
2023-01-20T01:26:06.442Z,11.23
2023-01-20T01:28:33.267Z,6.13
2023-01-20T01:31:02.118Z,9.87
2023-01-20T01:33:29.880Z,9.67
2023-01-20T01:36:02.032Z,12.60
2023-01-20T01:38:29.667Z,8.27
2023-01-20T01:40:57.003Z,4.63
2023-01-20T01:43:26.321Z,10.80
2023-01-20T01:45:53.375Z,7.00
2023-01-20T01:51:28.473Z,7.33
2023-01-20T01:54:05.871Z,4.00
2023-01-20T01:56:34.121Z,6.83
2023-01-20T01:59:03.414Z,6.63
2023-01-20T02:01:37.858Z,2.73
2023-01-20T02:04:11.648Z,5.73
2023-01-20T02:06:45.626Z,7.30
2023-01-20T02:09:13.087Z,3.93
2023-01-20T02:11:48.508Z,10.73
2023-01-20T02:14:22.365Z,4.97
2023-01-20T02:17:10.879Z,8.33
2023-01-20T02:20:04.811Z,8.40
2023-01-20T02:23:10.546Z,8.63
2023-01-20T02:26:10.866Z,9.10
2023-01-20T02:28:52.864Z,9.07
2023-01-20T02:31:51.847Z,20.63
2023-01-20T02:34:30.498Z,8.67
2023-01-20T02:37:29.855Z,12.23
2023-01-20T02:40:02.260Z,11.17
2023-01-20T02:42:41.231Z,8.67
2023-01-20T02:45:17.964Z,12.73
2023-01-20T02:47:50.712Z,20.30
2023-01-20T02:50:27.036Z,10.67
2023-01-20T02:52:58.190Z,13.13
2023-01-20T02:55:40.357Z,7.63
2023-01-20T02:58:30.739Z,6.33
2023-01-20T03:01:03.658Z,8.60
2023-01-20T03:03:35.448Z,12.70
2023-01-20T03:06:25.310Z,12.43
2023-01-20T03:08:54.486Z,7.13
2023-01-20T03:11:21.485Z,11.10
2023-01-20T03:14:10.774Z,6.10
2023-01-20T03:16:38.974Z,11.60
2023-01-20T03:19:06.043Z,12.10
2023-01-20T03:21:34.391Z,9.47
2023-01-20T03:24:03.688Z,13.63
2023-01-20T03:26:33.192Z,9.53
2023-01-20T03:29:07.033Z,7.07
2023-01-20T03:31:41.289Z,11.23
2023-01-20T03:34:12.829Z,7.20
2023-01-20T03:36:41.993Z,9.33
2023-01-20T03:39:09.351Z,7.97
2023-01-20T03:42:03.772Z,11.97
2023-01-20T03:45:09.366Z,8.77
2023-01-20T03:47:51.161Z,7.43
2023-01-20T03:50:29.750Z,6.93
2023-01-20T03:53:24.018Z,10.77
2023-01-20T03:56:03.741Z,7.93
2023-01-20T03:58:36.399Z,9.97
2023-01-20T04:01:18.675Z,9.13
2023-01-20T04:03:48.705Z,11.50
2023-01-20T04:06:18.111Z,8.43
2023-01-20T04:08:51.082Z,6.83
2023-01-20T04:11:18.431Z,7.67
2023-01-20T04:13:45.269Z,11.50
2023-01-20T04:16:18.113Z,13.37
2023-01-20T04:18:50.649Z,12.80
2023-01-20T04:21:43.954Z,7.77
2023-01-20T04:24:25.644Z,11.53
2023-01-20T04:27:10.892Z,7.80
2023-01-20T04:29:37.707Z,9.40
2023-01-20T04:32:04.635Z,9.57
2023-01-20T04:34:31.444Z,7.20
2023-01-20T04:36:58.143Z,7.40
2023-01-20T04:39:24.990Z,11.37
2023-01-20T04:41:51.805Z,6.13
2023-01-20T04:44:18.556Z,9.77
2023-01-20T04:46:47.336Z,9.13
2023-01-20T04:49:14.889Z,11.17
2023-01-20T04:51:41.614Z,8.07
2023-01-20T04:54:08.470Z,9.03
2023-01-20T04:56:35.266Z,13.33
2023-01-20T04:59:02.040Z,8.63
2023-01-20T05:01:28.900Z,9.73
2023-01-20T05:03:56.408Z,10.17
2023-01-20T05:06:23.228Z,9.57
2023-01-20T05:08:50.065Z,8.70
2023-01-20T05:11:16.911Z,12.87
2023-01-20T05:13:43.673Z,10.20
2023-01-20T05:16:10.927Z,7.73
2023-01-20T05:18:37.873Z,13.47
2023-01-20T05:21:06.011Z,6.47
2023-01-20T05:23:32.782Z,13.93
2023-01-20T05:25:59.482Z,9.70
2023-01-20T05:28:26.232Z,8.73
2023-01-20T05:30:53.115Z,9.30
2023-01-20T05:33:20.028Z,8.03
2023-01-20T05:35:46.849Z,6.70
2023-01-20T05:38:13.727Z,8.00
2023-01-20T05:40:40.517Z,14.70
2023-01-20T05:43:07.299Z,11.23
2023-01-20T05:45:52.479Z,9.57
2023-01-20T05:48:19.332Z,10.40
2023-01-20T05:50:46.084Z,13.57
2023-01-20T05:53:12.838Z,19.33
2023-01-20T05:55:39.666Z,6.70
2023-01-20T05:58:06.767Z,5.23
2023-01-20T06:00:33.933Z,18.87
2023-01-20T06:03:00.857Z,8.47
2023-01-20T06:05:28.284Z,10.30
2023-01-20T06:07:56.182Z,8.13
2023-01-20T06:10:28.186Z,7.17
2023-01-20T06:12:56.062Z,10.27
2023-01-20T06:15:24.287Z,7.93
2023-01-20T06:17:52.322Z,12.67
2023-01-20T06:20:19.596Z,15.50
2023-01-20T06:22:46.693Z,9.03
2023-01-20T06:25:13.788Z,9.70
2023-01-20T06:27:40.691Z,12.27
2023-01-20T06:30:26.234Z,8.23
2023-01-20T06:32:54.608Z,13.17
2023-01-20T06:35:21.440Z,7.40
2023-01-20T06:37:48.208Z,8.30
2023-01-20T06:40:16.184Z,10.03
2023-01-20T06:42:43.538Z,9.67
2023-01-20T06:45:11.016Z,8.07
2023-01-20T06:47:37.740Z,8.13
2023-01-20T06:50:04.783Z,5.37
2023-01-20T06:52:31.542Z,6.00
2023-01-20T06:54:58.225Z,12.10
2023-01-20T06:57:24.971Z,10.47
2023-01-20T06:59:51.679Z,13.50
2023-01-20T07:02:18.538Z,6.17
2023-01-20T07:04:45.915Z,13.53
2023-01-20T07:09:57.393Z,6.33
2023-01-20T07:12:24.099Z,9.63
2023-01-20T07:14:50.914Z,17.77
2023-01-20T07:17:17.759Z,10.67
2023-01-20T07:19:44.536Z,15.13
2023-01-20T07:22:11.331Z,7.20
2023-01-20T07:24:38.046Z,8.93
2023-01-20T07:27:04.842Z,11.03
2023-01-20T07:30:08.723Z,11.93
2023-01-20T07:32:35.504Z,9.20
2023-01-20T07:35:02.288Z,4.40
2023-01-20T07:37:29.043Z,10.33
2023-01-20T07:39:55.856Z,12.10
2023-01-20T07:42:22.707Z,11.27
2023-01-20T07:44:49.458Z,10.97
2023-01-20T07:47:16.248Z,9.00
2023-01-20T07:49:43.055Z,5.90
2023-01-20T07:52:09.850Z,7.60
2023-01-20T07:54:36.564Z,5.73
2023-01-20T07:57:03.353Z,8.33
2023-01-20T07:59:30.209Z,10.90
2023-01-20T08:01:57.022Z,6.73
2023-01-20T08:04:23.774Z,12.67
2023-01-20T08:06:50.507Z,12.17
2023-01-20T08:09:17.322Z,4.13
2023-01-20T08:11:44.096Z,6.37
2023-01-20T08:14:10.924Z,10.00
2023-01-20T08:16:55.900Z,8.20
2023-01-20T08:19:22.743Z,11.93
2023-01-20T08:21:49.494Z,9.57
2023-01-20T08:24:16.270Z,10.83
2023-01-20T08:29:27.578Z,12.10
2023-01-20T08:31:54.397Z,7.10
2023-01-20T08:34:24.338Z,7.63
2023-01-20T08:36:54.058Z,5.03
2023-01-20T08:39:21.159Z,8.33
2023-01-20T08:41:48.451Z,6.57
2023-01-20T08:44:16.489Z,9.60
2023-01-20T08:46:45.092Z,11.37
2023-01-20T08:49:14.905Z,15.50
2023-01-20T08:51:42.466Z,6.30
2023-01-20T08:54:09.573Z,6.77
2023-01-20T08:56:36.938Z,8.93
2023-01-20T08:59:22.330Z,4.80
2023-01-20T09:01:49.115Z,10.60
2023-01-20T09:04:16.000Z,9.97
2023-01-20T09:06:49.517Z,4.67
2023-01-20T09:12:04.002Z,7.93
2023-01-20T09:14:30.791Z,9.67
2023-01-20T09:16:57.753Z,4.90
2023-01-20T09:19:24.666Z,10.87
2023-01-20T09:21:51.495Z,8.63
2023-01-20T09:24:18.282Z,8.23
2023-01-20T09:26:45.464Z,9.40
2023-01-20T09:29:14.938Z,9.53
2023-01-20T09:34:37.664Z,4.37
2023-01-20T09:37:23.235Z,12.03
2023-01-20T09:40:08.345Z,7.10
2023-01-20T09:43:09.484Z,6.57
2023-01-20T09:45:52.898Z,6.50
2023-01-20T09:48:50.049Z,9.77
2023-01-20T09:52:02.163Z,9.80
2023-01-20T09:54:40.725Z,7.30
2023-01-20T09:57:10.809Z,8.10
2023-01-20T09:59:43.248Z,8.97
2023-01-20T10:02:25.366Z,4.07
2023-01-20T10:05:00.638Z,12.27
2023-01-20T10:07:42.627Z,11.77
2023-01-20T10:10:38.082Z,5.33
2023-01-20T10:13:04.858Z,11.83
2023-01-20T10:15:40.336Z,6.97
2023-01-20T10:18:17.919Z,6.43
2023-01-20T10:20:54.071Z,6.33
2023-01-20T10:23:29.615Z,4.67
2023-01-20T10:26:18.839Z,10.77
2023-01-20T10:28:58.786Z,7.70
2023-01-20T10:31:28.593Z,11.97
2023-01-20T10:34:08.952Z,12.13
2023-01-20T10:36:36.563Z,9.47
2023-01-20T10:39:19.606Z,3.43
2023-01-20T10:41:52.605Z,7.90
2023-01-20T10:44:19.530Z,10.20
2023-01-20T10:47:01.184Z,9.40
2023-01-20T10:49:36.807Z,12.27
2023-01-20T10:52:30.883Z,6.70
2023-01-20T10:58:24.677Z,6.23
2023-01-20T11:00:52.281Z,13.47
2023-01-20T11:03:22.698Z,8.17
2023-01-20T11:05:52.256Z,11.03
2023-01-20T11:08:31.287Z,8.87
2023-01-20T11:11:08.630Z,8.03
2023-01-20T11:13:35.512Z,8.23
2023-01-20T11:16:06.917Z,8.63
2023-01-20T11:18:33.783Z,8.27
2023-01-20T11:21:03.057Z,7.83
2023-01-20T11:23:38.475Z,10.30
2023-01-20T11:26:16.217Z,6.03
2023-01-20T11:28:45.936Z,10.73
2023-01-20T11:31:16.641Z,16.77
2023-01-20T11:33:58.932Z,5.50
2023-01-20T11:37:22.296Z,7.23
2023-01-20T11:40:04.641Z,2.37
2023-01-20T11:42:43.884Z,8.80
2023-01-20T11:45:27.792Z,6.63
2023-01-20T11:48:19.257Z,4.47
2023-01-20T11:50:54.439Z,7.80
2023-01-20T11:53:27.857Z,7.97
2023-01-20T11:56:02.224Z,9.67
2023-01-20T11:58:33.511Z,5.77
2023-01-20T12:01:06.112Z,4.40
2023-01-20T12:03:35.719Z,6.90
2023-01-20T12:06:25.654Z,12.80
2023-01-20T12:09:15.609Z,3.40
2023-01-20T12:12:13.707Z,5.03
2023-01-20T12:17:44.069Z,7.13
2023-01-20T12:20:42.365Z,7.17
2023-01-20T12:23:46.983Z,4.07
2023-01-20T12:26:34.562Z,10.83
2023-01-20T12:29:07.311Z,5.10
2023-01-20T12:31:34.378Z,4.30
2023-01-20T12:34:11.359Z,8.83
2023-01-20T12:36:44.503Z,11.03
2023-01-20T12:39:16.958Z,4.90
2023-01-20T12:42:08.387Z,5.70
2023-01-20T12:44:58.476Z,8.10
2023-01-20T12:47:42.480Z,9.03
2023-01-20T12:50:33.944Z,3.70
2023-01-20T12:53:03.396Z,4.17
2023-01-20T12:56:03.965Z,5.07
2023-01-20T12:58:50.361Z,2.63
2023-01-20T13:01:34.281Z,5.03
2023-01-20T13:04:35.002Z,4.93
2023-01-20T13:07:28.991Z,8.47
2023-01-20T13:13:12.177Z,4.50
2023-01-20T13:15:44.874Z,4.30
2023-01-20T13:18:28.363Z,5.00
2023-01-20T13:20:56.146Z,3.87
2023-01-20T13:23:27.260Z,7.53
2023-01-20T13:25:55.548Z,7.50
2023-01-20T13:28:26.180Z,8.73
2023-01-20T13:30:57.435Z,8.03
2023-01-20T13:33:39.168Z,8.57
2023-01-20T13:36:19.212Z,9.27
2023-01-20T13:39:41.499Z,4.57
2023-01-20T13:42:37.305Z,7.17
2023-01-20T13:45:13.206Z,7.53
2023-01-20T13:47:51.652Z,5.93
2023-01-20T13:50:27.699Z,9.90
2023-01-20T13:52:57.646Z,5.27
2023-01-20T13:55:52.001Z,6.80
2023-01-20T13:58:19.426Z,9.80
2023-01-20T14:00:49.118Z,3.60
2023-01-20T14:03:36.252Z,6.00
2023-01-20T14:06:23.716Z,5.10
2023-01-20T14:08:51.582Z,5.53
2023-01-20T14:11:25.405Z,3.70
2023-01-20T14:14:19.732Z,5.73
2023-01-20T14:16:46.828Z,6.50
2023-01-20T14:19:16.575Z,5.67
2023-01-20T14:21:43.407Z,5.13
2023-01-20T14:24:30.568Z,6.83
2023-01-20T14:27:20.589Z,4.80
2023-01-20T14:29:49.675Z,4.27
2023-01-20T14:32:25.076Z,11.60
2023-01-20T14:34:56.171Z,9.63
2023-01-20T14:37:31.995Z,6.00
2023-01-20T14:40:26.990Z,7.03
2023-01-20T14:43:13.359Z,5.20
2023-01-20T14:45:44.096Z,5.60
2023-01-20T14:48:19.105Z,6.27
2023-01-20T14:50:54.032Z,10.57
2023-01-20T14:53:20.780Z,7.70
2023-01-20T14:56:01.986Z,9.10
2023-01-20T14:58:32.200Z,11.47
2023-01-20T15:01:02.723Z,8.73
2023-01-20T15:03:30.895Z,10.47
2023-01-20T15:06:10.088Z,6.77
2023-01-20T15:08:37.423Z,3.73
2023-01-20T15:11:19.537Z,15.03
2023-01-20T15:13:57.270Z,7.80
2023-01-20T15:16:27.918Z,7.97
2023-01-20T15:19:13.187Z,4.40
2023-01-20T15:21:42.314Z,7.77
2023-01-20T15:24:30.715Z,13.63
2023-01-20T15:27:00.608Z,5.80
2023-01-20T15:29:34.503Z,4.67
2023-01-20T15:32:09.219Z,4.27
2023-01-20T15:34:36.246Z,4.10
2023-01-20T15:37:09.284Z,10.07
2023-01-20T15:39:36.302Z,10.30
2023-01-20T15:42:03.352Z,10.67
2023-01-20T15:44:48.403Z,9.80
2023-01-20T15:47:27.238Z,9.27
2023-01-20T15:49:54.060Z,12.27
2023-01-20T15:52:20.911Z,23.63
2023-01-20T15:54:47.701Z,42.63
2023-01-20T15:57:15.979Z,38.47
2023-01-20T16:00:02.019Z,36.00
2023-01-20T16:02:38.868Z,35.70
2023-01-20T16:05:06.194Z,32.70
2023-01-20T16:07:32.936Z,27.03
2023-01-20T16:09:59.742Z,20.47
2023-01-20T16:12:26.499Z,11.23
2023-01-20T16:14:53.297Z,10.10
2023-01-20T16:17:22.043Z,10.07
2023-01-20T16:19:49.967Z,6.87
2023-01-20T16:22:17.335Z,8.03
2023-01-20T16:24:44.302Z,13.20
2023-01-20T16:27:36.191Z,12.67
2023-01-20T16:30:03.373Z,11.87
2023-01-20T16:32:30.064Z,5.33
2023-01-20T16:34:56.826Z,15.10
2023-01-20T16:37:23.615Z,7.90
2023-01-20T16:39:50.401Z,7.80
2023-01-20T16:42:17.326Z,8.87
2023-01-20T16:44:44.158Z,6.17
2023-01-20T16:47:10.910Z,9.27
2023-01-20T16:49:38.986Z,6.20
2023-01-20T16:52:05.828Z,10.53
2023-01-20T16:54:32.581Z,8.03
2023-01-20T16:56:59.333Z,6.77
2023-01-20T16:59:29.008Z,9.67
2023-01-20T17:01:56.049Z,11.60
2023-01-20T17:04:41.590Z,8.33
2023-01-20T17:07:08.403Z,8.10
2023-01-20T17:09:35.181Z,11.03
2023-01-20T17:12:01.982Z,15.40
2023-01-20T17:14:28.855Z,12.23
2023-01-20T17:16:58.591Z,14.40
2023-01-20T17:19:25.904Z,13.10
2023-01-20T17:21:54.668Z,11.37
2023-01-20T17:24:21.540Z,17.10
2023-01-20T17:26:48.267Z,9.80
2023-01-20T17:29:15.116Z,11.83
2023-01-20T17:31:43.063Z,13.43
2023-01-20T17:34:11.360Z,10.27
2023-01-20T17:36:56.933Z,23.23
2023-01-20T17:39:23.728Z,21.77
2023-01-20T17:41:50.496Z,23.10
2023-01-20T17:44:37.866Z,12.63
2023-01-20T17:47:05.543Z,9.07
2023-01-20T17:49:32.252Z,12.37
2023-01-20T17:51:59.135Z,17.67
2023-01-20T17:54:25.860Z,13.93
2023-01-20T17:56:52.625Z,14.50
2023-01-20T17:59:19.321Z,11.40
2023-01-20T18:01:46.182Z,15.57
2023-01-20T18:04:12.936Z,15.67
2023-01-20T18:06:39.915Z,17.30
2023-01-20T18:09:07.784Z,13.43
2023-01-20T18:11:37.352Z,11.97
2023-01-20T18:14:22.983Z,12.13
2023-01-20T18:16:50.340Z,12.77
2023-01-20T18:19:17.150Z,16.53
2023-01-20T18:21:44.223Z,16.77
2023-01-20T18:24:11.962Z,11.73
2023-01-20T18:26:40.349Z,15.03
2023-01-20T18:29:26.205Z,19.70
2023-01-20T18:31:53.070Z,13.97
2023-01-20T18:34:20.805Z,15.47
2023-01-20T18:36:49.211Z,13.67
2023-01-20T18:39:24.236Z,15.70
2023-01-20T18:41:51.649Z,12.07
2023-01-20T18:44:19.039Z,13.00
2023-01-20T18:46:46.175Z,15.10
2023-01-20T18:49:14.406Z,23.03
2023-01-20T18:52:00.114Z,20.87
2023-01-20T18:54:30.076Z,18.70
2023-01-20T18:56:56.855Z,18.97
2023-01-20T18:59:23.818Z,25.73
2023-01-20T19:01:50.954Z,37.87
2023-01-20T19:07:02.215Z,32.53
2023-01-20T19:09:28.931Z,46.17
2023-01-20T19:11:55.718Z,52.67
2023-01-20T19:14:22.550Z,39.97
2023-01-20T19:16:49.580Z,31.10
2023-01-20T19:19:17.838Z,25.70
2023-01-20T19:21:44.878Z,14.87
2023-01-20T19:24:20.072Z,13.67
2023-01-20T19:26:47.256Z,8.80
2023-01-20T19:29:15.905Z,9.83
2023-01-20T19:31:42.858Z,4.50
2023-01-20T19:34:10.233Z,8.50
2023-01-20T19:36:37.107Z,6.60
2023-01-20T19:39:04.924Z,8.77
2023-01-20T19:41:34.376Z,8.27
2023-01-20T19:44:03.216Z,8.70
2023-01-20T19:46:33.109Z,10.33
2023-01-20T19:49:02.210Z,7.33
2023-01-20T19:51:31.269Z,8.00
2023-01-20T19:53:59.811Z,5.33
2023-01-20T19:56:29.882Z,4.23
2023-01-20T19:58:57.175Z,4.33
2023-01-20T20:01:35.385Z,4.73
2023-01-20T20:04:08.475Z,1.33
2023-01-20T20:06:38.152Z,1.87
2023-01-20T20:09:09.561Z,6.93
2023-01-20T20:11:36.382Z,3.20
2023-01-20T20:14:05.271Z,6.23
2023-01-20T20:16:34.649Z,1.83
2023-01-20T20:19:01.375Z,3.17
2023-01-20T20:21:28.356Z,2.93
2023-01-20T20:23:58.578Z,2.50
2023-01-20T20:26:28.802Z,4.70
2023-01-20T20:28:56.043Z,3.57
2023-01-20T20:31:28.966Z,6.80
2023-01-20T20:33:58.355Z,7.37
2023-01-20T20:36:28.393Z,8.90
2023-01-20T20:39:15.153Z,6.13
2023-01-20T20:41:42.693Z,5.43
2023-01-20T20:44:10.922Z,4.97
2023-01-20T20:46:38.086Z,9.13
2023-01-20T20:49:04.883Z,7.57
2023-01-20T20:51:33.945Z,11.43
2023-01-20T20:54:02.531Z,11.70
2023-01-20T20:56:48.636Z,11.00
2023-01-20T20:59:15.520Z,10.40
2023-01-20T21:01:42.350Z,14.30
2023-01-20T21:04:09.285Z,14.50
2023-01-20T21:06:36.130Z,13.70
2023-01-20T21:09:03.081Z,15.50
2023-01-20T21:11:48.260Z,16.70
2023-01-20T21:14:15.099Z,13.53
2023-01-20T21:16:41.900Z,9.67
2023-01-20T21:19:09.166Z,10.20
2023-01-20T21:21:36.023Z,9.00
2023-01-20T21:24:02.910Z,8.07
2023-01-20T21:26:30.705Z,5.10
2023-01-20T21:29:01.836Z,6.97
2023-01-20T21:31:29.472Z,4.40
2023-01-20T21:33:58.477Z,6.07
2023-01-20T21:36:26.487Z,2.50
2023-01-20T21:38:53.481Z,5.33
2023-01-20T21:41:20.753Z,3.40
2023-01-20T21:44:06.832Z,2.03
2023-01-20T21:46:38.772Z,2.43
2023-01-20T21:49:26.128Z,2.70
2023-01-20T21:52:11.913Z,3.37
2023-01-20T21:54:40.561Z,2.37
2023-01-20T21:57:25.894Z,2.40
2023-01-20T21:59:52.762Z,3.77
2023-01-20T22:02:19.540Z,4.30
2023-01-20T22:04:46.910Z,4.43
2023-01-20T22:10:00.179Z,2.97
2023-01-20T22:12:27.010Z,7.13
2023-01-20T22:14:53.812Z,4.47
2023-01-20T22:17:20.570Z,2.53
2023-01-20T22:19:47.390Z,9.33
2023-01-20T22:22:15.286Z,3.43
2023-01-20T22:24:42.532Z,3.70
2023-01-20T22:27:09.330Z,3.43
2023-01-20T22:29:36.101Z,4.33
2023-01-20T22:32:04.218Z,5.00
2023-01-20T22:34:31.076Z,3.20
2023-01-20T22:37:00.448Z,2.10
2023-01-20T22:39:27.996Z,4.57
2023-01-20T22:41:54.763Z,3.40
2023-01-20T22:44:21.520Z,2.47
2023-01-20T22:46:48.269Z,2.83
2023-01-20T22:49:14.995Z,2.57
2023-01-20T22:51:41.962Z,2.63
2023-01-20T22:54:10.644Z,2.20
2023-01-20T22:56:56.354Z,1.87
2023-01-20T22:59:23.102Z,1.60
2023-01-20T23:01:50.285Z,5.53
2023-01-20T23:04:17.056Z,3.60
2023-01-20T23:06:43.819Z,2.50
2023-01-20T23:09:29.343Z,2.47
2023-01-20T23:11:56.193Z,2.93
2023-01-20T23:14:42.900Z,2.43
2023-01-20T23:17:09.611Z,2.07
2023-01-20T23:19:36.383Z,1.97
2023-01-20T23:22:22.051Z,3.13
2023-01-20T23:24:48.831Z,5.27
2023-01-20T23:27:15.859Z,4.93
2023-01-20T23:29:42.795Z,4.00
2023-01-20T23:32:09.727Z,6.33
2023-01-20T23:34:36.482Z,3.70
2023-01-20T23:37:03.167Z,3.70
2023-01-20T23:39:29.927Z,1.10
2023-01-20T23:41:57.912Z,5.13
2023-01-20T23:44:24.750Z,4.00
2023-01-20T23:46:51.487Z,2.07
2023-01-20T23:49:18.567Z,5.17
2023-01-20T23:51:46.127Z,5.00
2023-01-20T23:54:13.375Z,4.57
2023-01-20T23:56:40.214Z,3.23
2023-01-20T23:59:06.948Z,4.07
